• Join FlightAware (Why Join?)
  • Login
  • US Flag 
10:44PM EDT


 

Airport Tracker/Info


-or-


 

Live Flight TrackerFlight Track Log ✈ USC250 ✈ 13-Jun-2013 ✈ KBWI - KUNV

Flight Track Log - Related Links

Times and Time Zones

All times are in EDT time to prevent confusion due to time zone crossing. See the USC250 flight status page for this flight to view local times or setup timezone preferences in your user account.

Time Position Orientation Groundspeed Altitude Reporting Facility
EDT Latitude Longitude Course Direction KTS MPH feet Rate Location/Type
07:08PM 39.2000 -76.6667 322° Northwest 96 110 1,300  Level Potomac TRACON
07:09PM 39.2167 -76.6833 322° Northwest 91 105 2,700 1,380 Climbing Potomac TRACON
07:10PM 39.2333 -76.7000 322° Northwest 92 106 4,000 1,140 Climbing Potomac TRACON
07:11PM 39.2500 -76.7333 303° West 94 108 5,000 480 Climbing Potomac TRACON
07:12PM 39.2833 -76.7500 339° North 128 147 5,000  Level Potomac TRACON
07:13PM 39.3167 -76.7833 322° Northwest 142 163 5,100  Climbing Potomac TRACON
07:37PM 40.2292 -77.3697 333° Northwest 167 192 5,100  Level New York Center
07:38PM 40.2711 -77.4008 330° Northwest 167 192 5,100 -120 Level New York Center
07:39PM 40.3014 -77.4228 331° Northwest 152 175 4,900 -120 Descending New York Center
07:40PM 40.3411 -77.4567 327° Northwest 146 168 4,900  Level New York Center
07:41PM 40.3711 -77.4786 331° Northwest 146 168 5,000  Climbing New York Center
07:42PM 40.4072 -77.5039 332° Northwest 136 157 4,900  Descending New York Center
07:43PM 40.4386 -77.5014 North 125 144 5,000  Climbing New York Center
07:44PM 40.4806 -77.4975 North 125 144 5,000 -60 Level New York Center
07:45PM 40.5183 -77.4928 North 138 159 4,900 -60 Descending New York Center
07:46PM 40.5603 -77.4889 North 145 167 4,900  Level New York Center
07:47PM 40.5936 -77.4867 North 140 161 4,900  Level New York Center
07:48PM 40.6336 -77.4794 North 134 154 5,000  Climbing New York Center
07:49PM 40.6753 -77.4808 359° North 140 161 5,000  Level New York Center
07:50PM 40.7106 -77.4817 359° North 148 170 5,000  Level New York Center
07:51PM 40.7481 -77.4825 359° North 137 158 5,100  Climbing New York Center
07:52PM 40.7858 -77.4808 North 137 158 5,000 -60 Descending New York Center
07:53PM 40.8233 -77.4817 359° North 137 158 5,000 -60 Level New York Center
07:54PM 40.8503 -77.5172 315° West 132 152 4,900 -300 Descending New York Center
07:55PM 40.8819 -77.5478 324° Northwest 132 152 4,400 -360 Descending New York Center
07:56PM 40.9142 -77.5703 332° Northwest 137 158 4,200 -120 Descending New York Center
07:57PM 40.9397 -77.5947 324° Northwest 125 144 4,200  Level New York Center
07:58PM 40.9547 -77.6264 302° West 120 138 4,200 120 Level New York Center
08:03PM 40.8531 -77.8633 240° Southwest 149 171 5,000 120 Climbing New York Center